sensor_id;sensor_type;location;lat;lon;timestamp;temperature;humidity
17266;DHT22;8749;47.076;15.412;2022-08-21T00:00:06;23.60;93.30
17266;DHT22;8749;47.076;15.412;2022-08-21T00:02:34;23.30;92.80
17266;DHT22;8749;47.076;15.412;2022-08-21T00:05:01;23.40;92.80
17266;DHT22;8749;47.076;15.412;2022-08-21T00:07:29;23.40;93.20
17266;DHT22;8749;47.076;15.412;2022-08-21T00:09:56;23.40;93.20
17266;DHT22;8749;47.076;15.412;2022-08-21T00:12:25;23.30;92.80
17266;DHT22;8749;47.076;15.412;2022-08-21T00:14:52;23.30;92.60
17266;DHT22;8749;47.076;15.412;2022-08-21T00:17:19;23.30;92.60
17266;DHT22;8749;47.076;15.412;2022-08-21T00:19:48;23.30;92.80
17266;DHT22;8749;47.076;15.412;2022-08-21T00:22:15;23.30;92.90
17266;DHT22;8749;47.076;15.412;2022-08-21T00:24:42;23.40;92.90
17266;DHT22;8749;47.076;15.412;2022-08-21T00:27:09;23.40;92.90
17266;DHT22;8749;47.076;15.412;2022-08-21T00:29:37;23.50;92.90
17266;DHT22;8749;47.076;15.412;2022-08-21T00:32:04;23.50;92.80
17266;DHT22;8749;47.076;15.412;2022-08-21T00:34:31;23.50;92.80
17266;DHT22;8749;47.076;15.412;2022-08-21T00:36:58;23.50;92.70
17266;DHT22;8749;47.076;15.412;2022-08-21T00:39:25;23.60;92.80
17266;DHT22;8749;47.076;15.412;2022-08-21T00:41:52;23.60;92.90
17266;DHT22;8749;47.076;15.412;2022-08-21T00:44:19;23.60;92.60
17266;DHT22;8749;47.076;15.412;2022-08-21T00:46:47;23.60;92.60
17266;DHT22;8749;47.076;15.412;2022-08-21T00:49:14;23.70;92.60
17266;DHT22;8749;47.076;15.412;2022-08-21T00:51:48;23.60;92.40
17266;DHT22;8749;47.076;15.412;2022-08-21T00:54:16;23.50;92.20
17266;DHT22;8749;47.076;15.412;2022-08-21T00:56:43;23.50;92.50
17266;DHT22;8749;47.076;15.412;2022-08-21T00:59:10;23.50;92.60
17266;DHT22;8749;47.076;15.412;2022-08-21T01:01:38;23.50;92.60
17266;DHT22;8749;47.076;15.412;2022-08-21T01:04:06;23.50;92.70
17266;DHT22;8749;47.076;15.412;2022-08-21T01:06:33;23.50;92.80
17266;DHT22;8749;47.076;15.412;2022-08-21T01:09:00;23.50;93.00
17266;DHT22;8749;47.076;15.412;2022-08-21T01:11:27;23.40;93.00
17266;DHT22;8749;47.076;15.412;2022-08-21T01:13:54;23.50;93.40
17266;DHT22;8749;47.076;15.412;2022-08-21T01:16:22;23.50;93.10
17266;DHT22;8749;47.076;15.412;2022-08-21T01:18:50;23.40;93.30
17266;DHT22;8749;47.076;15.412;2022-08-21T01:21:20;23.50;93.20
17266;DHT22;8749;47.076;15.412;2022-08-21T01:23:49;23.40;93.10
17266;DHT22;8749;47.076;15.412;2022-08-21T01:26:20;23.50;93.10
17266;DHT22;8749;47.076;15.412;2022-08-21T01:28:55;23.50;92.60
17266;DHT22;8749;47.076;15.412;2022-08-21T01:31:26;23.50;92.60
17266;DHT22;8749;47.076;15.412;2022-08-21T01:33:54;23.50;92.40
17266;DHT22;8749;47.076;15.412;2022-08-21T01:36:23;23.30;93.10
17266;DHT22;8749;47.076;15.412;2022-08-21T01:38:50;23.30;93.00
17266;DHT22;8749;47.076;15.412;2022-08-21T01:41:17;23.30;92.80
17266;DHT22;8749;47.076;15.412;2022-08-21T01:43:44;23.30;92.80
17266;DHT22;8749;47.076;15.412;2022-08-21T01:46:12;23.30;93.00
17266;DHT22;8749;47.076;15.412;2022-08-21T01:48:39;23.20;92.60
17266;DHT22;8749;47.076;15.412;2022-08-21T01:51:07;23.20;92.70
17266;DHT22;8749;47.076;15.412;2022-08-21T01:53:36;23.20;92.80
17266;DHT22;8749;47.076;15.412;2022-08-21T01:56:05;23.30;92.60
17266;DHT22;8749;47.076;15.412;2022-08-21T01:58:32;23.30;92.80
17266;DHT22;8749;47.076;15.412;2022-08-21T02:00:59;23.40;92.80
17266;DHT22;8749;47.076;15.412;2022-08-21T02:03:27;23.40;92.80
17266;DHT22;8749;47.076;15.412;2022-08-21T02:05:55;23.40;92.80
17266;DHT22;8749;47.076;15.412;2022-08-21T02:08:22;23.40;92.40
17266;DHT22;8749;47.076;15.412;2022-08-21T02:10:51;23.40;92.20
17266;DHT22;8749;47.076;15.412;2022-08-21T02:13:18;23.30;92.10
17266;DHT22;8749;47.076;15.412;2022-08-21T02:15:45;23.20;92.20
17266;DHT22;8749;47.076;15.412;2022-08-21T02:18:12;23.30;92.20
17266;DHT22;8749;47.076;15.412;2022-08-21T02:20:42;23.30;92.10
17266;DHT22;8749;47.076;15.412;2022-08-21T02:23:12;23.20;92.20
17266;DHT22;8749;47.076;15.412;2022-08-21T02:25:39;23.20;92.20
17266;DHT22;8749;47.076;15.412;2022-08-21T02:28:10;23.20;92.00
17266;DHT22;8749;47.076;15.412;2022-08-21T02:30:40;23.20;91.90
17266;DHT22;8749;47.076;15.412;2022-08-21T02:33:08;23.10;92.10
17266;DHT22;8749;47.076;15.412;2022-08-21T02:35:36;23.10;92.30
17266;DHT22;8749;47.076;15.412;2022-08-21T02:38:06;23.10;92.30
17266;DHT22;8749;47.076;15.412;2022-08-21T02:40:36;23.10;92.30
17266;DHT22;8749;47.076;15.412;2022-08-21T02:43:03;23.10;92.30
17266;DHT22;8749;47.076;15.412;2022-08-21T02:45:33;23.10;92.20
17266;DHT22;8749;47.076;15.412;2022-08-21T02:48:03;23.10;92.00
17266;DHT22;8749;47.076;15.412;2022-08-21T02:50:32;23.10;92.00
17266;DHT22;8749;47.076;15.412;2022-08-21T02:53:00;23.00;91.90
17266;DHT22;8749;47.076;15.412;2022-08-21T02:55:29;23.00;92.00
17266;DHT22;8749;47.076;15.412;2022-08-21T02:57:57;23.10;92.00
17266;DHT22;8749;47.076;15.412;2022-08-21T03:00:26;23.10;92.00
17266;DHT22;8749;47.076;15.412;2022-08-21T03:02:55;23.10;92.10
17266;DHT22;8749;47.076;15.412;2022-08-21T03:05:23;23.20;92.10
17266;DHT22;8749;47.076;15.412;2022-08-21T03:07:51;23.20;92.10
17266;DHT22;8749;47.076;15.412;2022-08-21T03:10:19;23.20;91.90
17266;DHT22;8749;47.076;15.412;2022-08-21T03:12:46;23.20;91.90
17266;DHT22;8749;47.076;15.412;2022-08-21T03:15:16;23.30;92.00
17266;DHT22;8749;47.076;15.412;2022-08-21T03:17:43;23.30;91.90
17266;DHT22;8749;47.076;15.412;2022-08-21T03:20:13;23.30;91.80
17266;DHT22;8749;47.076;15.412;2022-08-21T03:22:41;23.20;92.30
17266;DHT22;8749;47.076;15.412;2022-08-21T03:25:08;23.20;92.60
17266;DHT22;8749;47.076;15.412;2022-08-21T03:27:36;23.10;92.90
17266;DHT22;8749;47.076;15.412;2022-08-21T03:30:04;22.90;92.80
17266;DHT22;8749;47.076;15.412;2022-08-21T03:32:32;22.90;92.50
17266;DHT22;8749;47.076;15.412;2022-08-21T03:34:59;23.00;92.50
17266;DHT22;8749;47.076;15.412;2022-08-21T03:37:28;23.00;92.50
17266;DHT22;8749;47.076;15.412;2022-08-21T03:39:55;23.00;92.40
17266;DHT22;8749;47.076;15.412;2022-08-21T03:42:22;23.10;92.40
17266;DHT22;8749;47.076;15.412;2022-08-21T03:44:49;23.10;92.40
17266;DHT22;8749;47.076;15.412;2022-08-21T03:47:16;23.10;92.50
17266;DHT22;8749;47.076;15.412;2022-08-21T03:49:43;23.10;92.40
17266;DHT22;8749;47.076;15.412;2022-08-21T03:52:10;23.10;92.40
17266;DHT22;8749;47.076;15.412;2022-08-21T03:54:38;23.10;92.30
17266;DHT22;8749;47.076;15.412;2022-08-21T03:57:06;23.10;92.40
17266;DHT22;8749;47.076;15.412;2022-08-21T03:59:32;23.20;92.00
17266;DHT22;8749;47.076;15.412;2022-08-21T04:02:01;23.10;92.00
17266;DHT22;8749;47.076;15.412;2022-08-21T04:04:29;23.20;92.10
17266;DHT22;8749;47.076;15.412;2022-08-21T04:06:56;23.20;92.20
17266;DHT22;8749;47.076;15.412;2022-08-21T04:09:24;23.10;92.30
17266;DHT22;8749;47.076;15.412;2022-08-21T04:11:52;23.00;92.40
17266;DHT22;8749;47.076;15.412;2022-08-21T04:14:20;22.80;92.70
17266;DHT22;8749;47.076;15.412;2022-08-21T04:16:47;22.80;92.70
17266;DHT22;8749;47.076;15.412;2022-08-21T04:19:15;22.80;92.70
17266;DHT22;8749;47.076;15.412;2022-08-21T04:21:42;22.80;92.70
17266;DHT22;8749;47.076;15.412;2022-08-21T04:24:10;22.80;92.60
17266;DHT22;8749;47.076;15.412;2022-08-21T04:26:38;22.90;92.70
17266;DHT22;8749;47.076;15.412;2022-08-21T04:29:06;22.90;92.80
17266;DHT22;8749;47.076;15.412;2022-08-21T04:31:36;22.90;93.00
17266;DHT22;8749;47.076;15.412;2022-08-21T04:34:03;22.80;93.10
17266;DHT22;8749;47.076;15.412;2022-08-21T04:36:30;22.80;93.10
17266;DHT22;8749;47.076;15.412;2022-08-21T04:38:57;22.90;93.10
17266;DHT22;8749;47.076;15.412;2022-08-21T04:41:24;22.90;93.10
17266;DHT22;8749;47.076;15.412;2022-08-21T04:43:51;23.00;93.10
17266;DHT22;8749;47.076;15.412;2022-08-21T04:46:21;22.90;93.10
17266;DHT22;8749;47.076;15.412;2022-08-21T04:48:48;23.00;93.10
17266;DHT22;8749;47.076;15.412;2022-08-21T04:51:17;23.00;93.10
17266;DHT22;8749;47.076;15.412;2022-08-21T04:53:50;23.00;93.30
17266;DHT22;8749;47.076;15.412;2022-08-21T04:56:20;23.00;93.40
17266;DHT22;8749;47.076;15.412;2022-08-21T04:58:49;23.10;93.30
17266;DHT22;8749;47.076;15.412;2022-08-21T05:01:21;23.10;93.30
17266;DHT22;8749;47.076;15.412;2022-08-21T05:03:51;23.20;93.40
17266;DHT22;8749;47.076;15.412;2022-08-21T05:06:18;23.20;93.60
17266;DHT22;8749;47.076;15.412;2022-08-21T05:08:47;23.20;93.60
17266;DHT22;8749;47.076;15.412;2022-08-21T05:11:14;23.30;93.60
17266;DHT22;8749;47.076;15.412;2022-08-21T05:13:41;23.30;93.70
17266;DHT22;8749;47.076;15.412;2022-08-21T05:16:08;23.40;93.70
17266;DHT22;8749;47.076;15.412;2022-08-21T05:18:37;23.40;93.70
17266;DHT22;8749;47.076;15.412;2022-08-21T05:21:04;23.40;93.30
17266;DHT22;8749;47.076;15.412;2022-08-21T05:23:31;23.50;93.30
17266;DHT22;8749;47.076;15.412;2022-08-21T05:25:58;23.50;93.50
17266;DHT22;8749;47.076;15.412;2022-08-21T05:28:25;23.50;93.60
17266;DHT22;8749;47.076;15.412;2022-08-21T05:30:52;23.40;93.10
17266;DHT22;8749;47.076;15.412;2022-08-21T05:33:19;23.40;93.00
17266;DHT22;8749;47.076;15.412;2022-08-21T05:35:49;23.40;92.90
17266;DHT22;8749;47.076;15.412;2022-08-21T05:38:17;23.40;93.00
17266;DHT22;8749;47.076;15.412;2022-08-21T05:40:44;23.40;93.20
17266;DHT22;8749;47.076;15.412;2022-08-21T05:43:12;23.40;93.30
17266;DHT22;8749;47.076;15.412;2022-08-21T05:45:39;23.30;93.50
17266;DHT22;8749;47.076;15.412;2022-08-21T05:48:06;23.30;93.40
17266;DHT22;8749;47.076;15.412;2022-08-21T05:50:34;23.30;93.10
17266;DHT22;8749;47.076;15.412;2022-08-21T05:53:05;23.40;93.10
17266;DHT22;8749;47.076;15.412;2022-08-21T05:55:32;23.40;93.10
17266;DHT22;8749;47.076;15.412;2022-08-21T05:57:59;23.40;92.90
17266;DHT22;8749;47.076;15.412;2022-08-21T06:00:26;23.50;92.90
17266;DHT22;8749;47.076;15.412;2022-08-21T06:02:53;23.60;92.90
17266;DHT22;8749;47.076;15.412;2022-08-21T06:05:19;23.60;92.70
17266;DHT22;8749;47.076;15.412;2022-08-21T06:07:46;23.70;92.70
17266;DHT22;8749;47.076;15.412;2022-08-21T06:10:15;23.70;92.70
17266;DHT22;8749;47.076;15.412;2022-08-21T06:12:42;23.80;92.70
17266;DHT22;8749;47.076;15.412;2022-08-21T06:15:09;23.90;92.60
17266;DHT22;8749;47.076;15.412;2022-08-21T06:17:36;23.90;92.60
17266;DHT22;8749;47.076;15.412;2022-08-21T06:20:04;24.00;92.30
17266;DHT22;8749;47.076;15.412;2022-08-21T06:22:31;24.10;92.20
17266;DHT22;8749;47.076;15.412;2022-08-21T06:24:58;24.10;92.20
17266;DHT22;8749;47.076;15.412;2022-08-21T06:27:26;24.10;92.10
17266;DHT22;8749;47.076;15.412;2022-08-21T06:29:53;24.20;92.10
17266;DHT22;8749;47.076;15.412;2022-08-21T06:32:22;24.20;92.20
17266;DHT22;8749;47.076;15.412;2022-08-21T06:34:48;24.30;92.10
17266;DHT22;8749;47.076;15.412;2022-08-21T06:37:15;24.30;92.10
17266;DHT22;8749;47.076;15.412;2022-08-21T06:39:42;24.30;92.20
17266;DHT22;8749;47.076;15.412;2022-08-21T06:42:13;24.40;92.10
17266;DHT22;8749;47.076;15.412;2022-08-21T06:44:41;24.40;92.10
17266;DHT22;8749;47.076;15.412;2022-08-21T06:47:08;24.40;92.00
17266;DHT22;8749;47.076;15.412;2022-08-21T06:49:35;24.50;91.90
17266;DHT22;8749;47.076;15.412;2022-08-21T06:52:03;24.50;91.80
17266;DHT22;8749;47.076;15.412;2022-08-21T06:54:30;24.60;91.80
17266;DHT22;8749;47.076;15.412;2022-08-21T06:56:58;24.60;91.90
17266;DHT22;8749;47.076;15.412;2022-08-21T06:59:25;24.70;91.80
17266;DHT22;8749;47.076;15.412;2022-08-21T07:01:53;24.70;91.70
17266;DHT22;8749;47.076;15.412;2022-08-21T07:04:20;24.70;91.80
17266;DHT22;8749;47.076;15.412;2022-08-21T07:06:47;24.70;91.80
17266;DHT22;8749;47.076;15.412;2022-08-21T07:09:14;24.60;91.70
17266;DHT22;8749;47.076;15.412;2022-08-21T07:11:41;24.60;91.90
17266;DHT22;8749;47.076;15.412;2022-08-21T07:14:08;24.60;91.90
17266;DHT22;8749;47.076;15.412;2022-08-21T07:16:35;24.60;91.90
17266;DHT22;8749;47.076;15.412;2022-08-21T07:19:03;24.60;92.00
17266;DHT22;8749;47.076;15.412;2022-08-21T07:21:30;24.60;91.90
17266;DHT22;8749;47.076;15.412;2022-08-21T07:23:57;24.60;92.00
17266;DHT22;8749;47.076;15.412;2022-08-21T07:26:24;24.60;92.00
17266;DHT22;8749;47.076;15.412;2022-08-21T07:28:52;24.60;91.90
17266;DHT22;8749;47.076;15.412;2022-08-21T07:31:21;24.60;91.90
17266;DHT22;8749;47.076;15.412;2022-08-21T07:33:48;24.60;91.90
17266;DHT22;8749;47.076;15.412;2022-08-21T07:36:17;24.50;91.90
17266;DHT22;8749;47.076;15.412;2022-08-21T07:38:44;24.50;92.00
17266;DHT22;8749;47.076;15.412;2022-08-21T07:41:14;24.60;91.90
17266;DHT22;8749;47.076;15.412;2022-08-21T07:43:42;24.50;91.90
17266;DHT22;8749;47.076;15.412;2022-08-21T07:46:09;24.50;91.80
17266;DHT22;8749;47.076;15.412;2022-08-21T07:48:36;24.50;91.90
17266;DHT22;8749;47.076;15.412;2022-08-21T07:51:08;24.50;91.80
17266;DHT22;8749;47.076;15.412;2022-08-21T07:53:37;24.50;91.90
17266;DHT22;8749;47.076;15.412;2022-08-21T07:56:07;24.50;92.00
17266;DHT22;8749;47.076;15.412;2022-08-21T07:58:36;24.50;92.10
17266;DHT22;8749;47.076;15.412;2022-08-21T08:01:04;24.50;92.00
17266;DHT22;8749;47.076;15.412;2022-08-21T08:03:32;24.50;92.00
17266;DHT22;8749;47.076;15.412;2022-08-21T08:05:59;24.50;92.10
17266;DHT22;8749;47.076;15.412;2022-08-21T08:08:26;24.40;92.10
17266;DHT22;8749;47.076;15.412;2022-08-21T08:10:56;24.40;92.10
17266;DHT22;8749;47.076;15.412;2022-08-21T08:13:25;24.40;92.00
17266;DHT22;8749;47.076;15.412;2022-08-21T08:15:52;24.50;92.10
17266;DHT22;8749;47.076;15.412;2022-08-21T08:18:19;24.50;92.20
17266;DHT22;8749;47.076;15.412;2022-08-21T08:20:46;24.50;92.30
17266;DHT22;8749;47.076;15.412;2022-08-21T08:23:13;24.60;92.20
17266;DHT22;8749;47.076;15.412;2022-08-21T08:25:40;24.60;92.20
17266;DHT22;8749;47.076;15.412;2022-08-21T08:28:09;24.60;92.10
17266;DHT22;8749;47.076;15.412;2022-08-21T08:30:36;24.70;92.20
17266;DHT22;8749;47.076;15.412;2022-08-21T08:33:03;24.70;92.20
17266;DHT22;8749;47.076;15.412;2022-08-21T08:35:30;24.80;92.10
17266;DHT22;8749;47.076;15.412;2022-08-21T08:37:57;24.80;92.10
17266;DHT22;8749;47.076;15.412;2022-08-21T08:40:30;24.80;92.10
17266;DHT22;8749;47.076;15.412;2022-08-21T08:42:59;24.80;92.20
17266;DHT22;8749;47.076;15.412;2022-08-21T08:45:30;24.80;92.10
17266;DHT22;8749;47.076;15.412;2022-08-21T08:48:01;24.80;91.90
17266;DHT22;8749;47.076;15.412;2022-08-21T08:50:41;24.80;91.80
17266;DHT22;8749;47.076;15.412;2022-08-21T08:53:14;24.90;91.80
17266;DHT22;8749;47.076;15.412;2022-08-21T08:55:45;24.90;91.80
17266;DHT22;8749;47.076;15.412;2022-08-21T08:58:16;25.00;91.80
17266;DHT22;8749;47.076;15.412;2022-08-21T09:00:47;25.10;91.70
17266;DHT22;8749;47.076;15.412;2022-08-21T09:03:16;25.10;91.80
17266;DHT22;8749;47.076;15.412;2022-08-21T09:05:46;25.20;91.70
17266;DHT22;8749;47.076;15.412;2022-08-21T09:08:39;25.30;91.80
17266;DHT22;8749;47.076;15.412;2022-08-21T09:11:23;25.40;91.70
17266;DHT22;8749;47.076;15.412;2022-08-21T09:13:59;25.40;91.40
17266;DHT22;8749;47.076;15.412;2022-08-21T09:16:37;25.40;91.40
17266;DHT22;8749;47.076;15.412;2022-08-21T09:19:14;25.40;91.50
17266;DHT22;8749;47.076;15.412;2022-08-21T09:21:49;25.30;91.40
17266;DHT22;8749;47.076;15.412;2022-08-21T09:24:29;25.40;91.70
17266;DHT22;8749;47.076;15.412;2022-08-21T09:27:02;25.40;92.10
17266;DHT22;8749;47.076;15.412;2022-08-21T09:29:34;25.40;92.20
17266;DHT22;8749;47.076;15.412;2022-08-21T09:32:09;25.50;92.10
17266;DHT22;8749;47.076;15.412;2022-08-21T09:34:36;25.50;91.90
17266;DHT22;8749;47.076;15.412;2022-08-21T09:37:03;25.50;91.80
17266;DHT22;8749;47.076;15.412;2022-08-21T09:39:38;25.60;92.00
17266;DHT22;8749;47.076;15.412;2022-08-21T09:42:08;25.60;92.00
17266;DHT22;8749;47.076;15.412;2022-08-21T09:44:37;25.60;91.80
17266;DHT22;8749;47.076;15.412;2022-08-21T09:47:09;25.60;91.70
17266;DHT22;8749;47.076;15.412;2022-08-21T09:49:40;25.60;91.90
17266;DHT22;8749;47.076;15.412;2022-08-21T09:52:16;25.70;91.70
17266;DHT22;8749;47.076;15.412;2022-08-21T09:54:45;25.70;91.40
17266;DHT22;8749;47.076;15.412;2022-08-21T09:57:14;25.70;91.40
17266;DHT22;8749;47.076;15.412;2022-08-21T10:00:10;25.90;91.60
17266;DHT22;8749;47.076;15.412;2022-08-21T10:02:38;25.90;91.30
17266;DHT22;8749;47.076;15.412;2022-08-21T10:05:14;26.00;91.10
17266;DHT22;8749;47.076;15.412;2022-08-21T10:07:41;26.00;91.10
17266;DHT22;8749;47.076;15.412;2022-08-21T10:10:18;26.00;91.10
17266;DHT22;8749;47.076;15.412;2022-08-21T10:12:51;26.00;91.00
17266;DHT22;8749;47.076;15.412;2022-08-21T10:15:24;26.10;91.10
17266;DHT22;8749;47.076;15.412;2022-08-21T10:18:02;26.10;91.10
17266;DHT22;8749;47.076;15.412;2022-08-21T10:20:37;26.20;91.20
17266;DHT22;8749;47.076;15.412;2022-08-21T10:23:18;26.30;91.00
17266;DHT22;8749;47.076;15.412;2022-08-21T10:25:57;26.40;90.90
17266;DHT22;8749;47.076;15.412;2022-08-21T10:28:29;26.40;91.00
17266;DHT22;8749;47.076;15.412;2022-08-21T10:31:03;26.50;91.10
17266;DHT22;8749;47.076;15.412;2022-08-21T10:33:38;26.60;91.00
17266;DHT22;8749;47.076;15.412;2022-08-21T10:36:13;26.70;91.00
17266;DHT22;8749;47.076;15.412;2022-08-21T10:38:52;26.80;90.60
17266;DHT22;8749;47.076;15.412;2022-08-21T10:41:30;26.80;90.60
17266;DHT22;8749;47.076;15.412;2022-08-21T10:44:04;27.00;90.60
17266;DHT22;8749;47.076;15.412;2022-08-21T10:46:44;27.00;90.40
17266;DHT22;8749;47.076;15.412;2022-08-21T10:49:22;27.00;90.20
17266;DHT22;8749;47.076;15.412;2022-08-21T10:51:59;27.00;90.10
17266;DHT22;8749;47.076;15.412;2022-08-21T10:54:35;27.00;89.40
17266;DHT22;8749;47.076;15.412;2022-08-21T10:57:09;26.90;89.60
17266;DHT22;8749;47.076;15.412;2022-08-21T10:59:42;26.90;90.00
17266;DHT22;8749;47.076;15.412;2022-08-21T11:02:15;26.90;90.00
17266;DHT22;8749;47.076;15.412;2022-08-21T11:04:52;27.00;90.00
17266;DHT22;8749;47.076;15.412;2022-08-21T11:07:26;27.00;89.80
17266;DHT22;8749;47.076;15.412;2022-08-21T11:09:55;27.00;89.50
17266;DHT22;8749;47.076;15.412;2022-08-21T11:12:27;27.10;89.60
17266;DHT22;8749;47.076;15.412;2022-08-21T11:15:00;27.00;89.10
17266;DHT22;8749;47.076;15.412;2022-08-21T11:17:32;27.10;89.40
17266;DHT22;8749;47.076;15.412;2022-08-21T11:20:07;27.20;88.40
17266;DHT22;8749;47.076;15.412;2022-08-21T11:22:43;27.10;88.40
17266;DHT22;8749;47.076;15.412;2022-08-21T11:25:19;27.00;88.10
17266;DHT22;8749;47.076;15.412;2022-08-21T11:27:52;26.80;88.50
17266;DHT22;8749;47.076;15.412;2022-08-21T11:30:20;26.70;89.20
17266;DHT22;8749;47.076;15.412;2022-08-21T11:33:06;26.70;88.00
17266;DHT22;8749;47.076;15.412;2022-08-21T11:35:42;26.40;88.50
17266;DHT22;8749;47.076;15.412;2022-08-21T11:38:26;26.50;88.40
17266;DHT22;8749;47.076;15.412;2022-08-21T11:41:08;26.50;88.20
17266;DHT22;8749;47.076;15.412;2022-08-21T11:43:41;26.50;88.50
17266;DHT22;8749;47.076;15.412;2022-08-21T11:46:18;26.50;88.40
17266;DHT22;8749;47.076;15.412;2022-08-21T11:48:59;26.60;88.60
17266;DHT22;8749;47.076;15.412;2022-08-21T11:51:33;26.70;88.30
17266;DHT22;8749;47.076;15.412;2022-08-21T11:54:06;26.70;88.10
17266;DHT22;8749;47.076;15.412;2022-08-21T11:56:38;26.70;87.80
17266;DHT22;8749;47.076;15.412;2022-08-21T11:59:10;26.70;87.70
17266;DHT22;8749;47.076;15.412;2022-08-21T12:01:42;26.60;87.60
17266;DHT22;8749;47.076;15.412;2022-08-21T12:04:17;26.50;87.80
17266;DHT22;8749;47.076;15.412;2022-08-21T12:06:46;26.50;87.90
17266;DHT22;8749;47.076;15.412;2022-08-21T12:09:31;26.50;88.20
17266;DHT22;8749;47.076;15.412;2022-08-21T12:12:03;26.60;88.30
17266;DHT22;8749;47.076;15.412;2022-08-21T12:14:38;26.70;88.00
17266;DHT22;8749;47.076;15.412;2022-08-21T12:17:08;26.80;87.80
17266;DHT22;8749;47.076;15.412;2022-08-21T12:19:35;26.90;87.90
17266;DHT22;8749;47.076;15.412;2022-08-21T12:22:11;27.00;87.80
17266;DHT22;8749;47.076;15.412;2022-08-21T12:24:39;27.00;87.50
17266;DHT22;8749;47.076;15.412;2022-08-21T12:27:20;27.00;87.30
17266;DHT22;8749;47.076;15.412;2022-08-21T12:29:52;26.90;87.20
17266;DHT22;8749;47.076;15.412;2022-08-21T12:32:25;26.80;87.50
17266;DHT22;8749;47.076;15.412;2022-08-21T12:34:56;26.80;87.30
17266;DHT22;8749;47.076;15.412;2022-08-21T12:37:40;26.70;87.00
17266;DHT22;8749;47.076;15.412;2022-08-21T12:40:14;26.60;87.50
17266;DHT22;8749;47.076;15.412;2022-08-21T12:42:46;26.60;87.60
17266;DHT22;8749;47.076;15.412;2022-08-21T12:45:19;26.60;87.70
17266;DHT22;8749;47.076;15.412;2022-08-21T12:47:51;26.60;87.90
17266;DHT22;8749;47.076;15.412;2022-08-21T12:50:26;26.60;87.70
17266;DHT22;8749;47.076;15.412;2022-08-21T12:53:00;26.50;88.00
17266;DHT22;8749;47.076;15.412;2022-08-21T12:55:32;26.50;87.60
17266;DHT22;8749;47.076;15.412;2022-08-21T12:58:00;26.40;87.50
17266;DHT22;8749;47.076;15.412;2022-08-21T13:00:29;26.30;87.50
17266;DHT22;8749;47.076;15.412;2022-08-21T13:02:56;26.40;87.70
17266;DHT22;8749;47.076;15.412;2022-08-21T13:05:30;26.40;87.70
17266;DHT22;8749;47.076;15.412;2022-08-21T13:08:03;26.30;87.30
17266;DHT22;8749;47.076;15.412;2022-08-21T13:10:32;26.20;87.30
17266;DHT22;8749;47.076;15.412;2022-08-21T13:13:02;25.90;87.80
17266;DHT22;8749;47.076;15.412;2022-08-21T13:15:35;25.90;88.30
17266;DHT22;8749;47.076;15.412;2022-08-21T13:18:03;25.90;88.50
17266;DHT22;8749;47.076;15.412;2022-08-21T13:20:33;25.90;88.30
17266;DHT22;8749;47.076;15.412;2022-08-21T13:23:05;25.90;88.40
17266;DHT22;8749;47.076;15.412;2022-08-21T13:25:35;25.80;88.60
17266;DHT22;8749;47.076;15.412;2022-08-21T13:28:06;25.70;89.00
17266;DHT22;8749;47.076;15.412;2022-08-21T13:30:37;25.70;88.70
17266;DHT22;8749;47.076;15.412;2022-08-21T13:33:06;25.70;89.10
17266;DHT22;8749;47.076;15.412;2022-08-21T13:35:44;25.50;89.10
17266;DHT22;8749;47.076;15.412;2022-08-21T13:38:14;25.30;89.60
17266;DHT22;8749;47.076;15.412;2022-08-21T13:40:46;25.30;89.60
17266;DHT22;8749;47.076;15.412;2022-08-21T13:43:15;25.40;90.00
17266;DHT22;8749;47.076;15.412;2022-08-21T13:45:46;25.40;90.00
17266;DHT22;8749;47.076;15.412;2022-08-21T13:48:14;25.20;90.20
17266;DHT22;8749;47.076;15.412;2022-08-21T13:50:41;25.30;90.10
17266;DHT22;8749;47.076;15.412;2022-08-21T13:53:22;25.20;90.10
17266;DHT22;8749;47.076;15.412;2022-08-21T13:55:49;25.30;90.10
17266;DHT22;8749;47.076;15.412;2022-08-21T13:58:25;25.20;90.30
17266;DHT22;8749;47.076;15.412;2022-08-21T14:00:53;25.30;90.40
17266;DHT22;8749;47.076;15.412;2022-08-21T14:03:29;25.40;90.50
17266;DHT22;8749;47.076;15.412;2022-08-21T14:05:58;25.40;90.50
17266;DHT22;8749;47.076;15.412;2022-08-21T14:08:29;25.30;90.30
17266;DHT22;8749;47.076;15.412;2022-08-21T14:10:58;25.30;90.20
17266;DHT22;8749;47.076;15.412;2022-08-21T14:13:36;25.40;90.20
17266;DHT22;8749;47.076;15.412;2022-08-21T14:16:13;25.50;89.90
17266;DHT22;8749;47.076;15.412;2022-08-21T14:18:53;25.40;89.60
17266;DHT22;8749;47.076;15.412;2022-08-21T14:21:29;25.40;89.70
17266;DHT22;8749;47.076;15.412;2022-08-21T14:24:08;25.60;89.80
17266;DHT22;8749;47.076;15.412;2022-08-21T14:26:42;25.70;89.20
17266;DHT22;8749;47.076;15.412;2022-08-21T14:29:13;25.70;88.60
17266;DHT22;8749;47.076;15.412;2022-08-21T14:31:41;25.70;88.80
17266;DHT22;8749;47.076;15.412;2022-08-21T14:34:11;25.80;88.80
17266;DHT22;8749;47.076;15.412;2022-08-21T14:36:40;25.90;88.60
17266;DHT22;8749;47.076;15.412;2022-08-21T14:39:09;26.10;88.20
17266;DHT22;8749;47.076;15.412;2022-08-21T14:41:37;26.10;87.40
17266;DHT22;8749;47.076;15.412;2022-08-21T14:44:04;26.00;87.40
17266;DHT22;8749;47.076;15.412;2022-08-21T14:46:33;26.00;87.10
17266;DHT22;8749;47.076;15.412;2022-08-21T14:49:02;26.10;86.70
17266;DHT22;8749;47.076;15.412;2022-08-21T14:51:29;26.00;87.00
17266;DHT22;8749;47.076;15.412;2022-08-21T14:53:56;26.10;86.30
17266;DHT22;8749;47.076;15.412;2022-08-21T14:56:24;26.10;85.20
17266;DHT22;8749;47.076;15.412;2022-08-21T14:58:52;26.00;85.50
17266;DHT22;8749;47.076;15.412;2022-08-21T15:01:22;25.90;85.70
17266;DHT22;8749;47.076;15.412;2022-08-21T15:03:49;26.00;85.50
17266;DHT22;8749;47.076;15.412;2022-08-21T15:06:17;26.00;85.40
17266;DHT22;8749;47.076;15.412;2022-08-21T15:08:46;26.00;85.30
17266;DHT22;8749;47.076;15.412;2022-08-21T15:11:18;26.20;85.30
17266;DHT22;8749;47.076;15.412;2022-08-21T15:13:47;26.30;84.10
17266;DHT22;8749;47.076;15.412;2022-08-21T15:16:16;26.40;83.90
17266;DHT22;8749;47.076;15.412;2022-08-21T15:18:43;26.30;83.60
17266;DHT22;8749;47.076;15.412;2022-08-21T15:21:10;26.30;83.20
17266;DHT22;8749;47.076;15.412;2022-08-21T15:23:36;26.20;83.00
17266;DHT22;8749;47.076;15.412;2022-08-21T15:26:04;26.10;82.60
17266;DHT22;8749;47.076;15.412;2022-08-21T15:28:31;26.00;82.10
17266;DHT22;8749;47.076;15.412;2022-08-21T15:31:01;26.00;82.00
17266;DHT22;8749;47.076;15.412;2022-08-21T15:33:27;26.00;81.70
17266;DHT22;8749;47.076;15.412;2022-08-21T15:35:55;26.00;82.10
17266;DHT22;8749;47.076;15.412;2022-08-21T15:38:23;26.00;82.20
17266;DHT22;8749;47.076;15.412;2022-08-21T15:40:50;26.10;81.70
17266;DHT22;8749;47.076;15.412;2022-08-21T15:43:22;26.10;81.40
17266;DHT22;8749;47.076;15.412;2022-08-21T15:45:50;26.00;81.50